createdAt,value
2023-05-23T00:00:54.934Z,4.30
2023-05-23T00:03:42.994Z,3.47
2023-05-23T00:06:31.591Z,3.90
2023-05-23T00:09:20.014Z,4.05
2023-05-23T00:12:07.826Z,4.20
2023-05-23T00:14:55.784Z,5.18
2023-05-23T00:17:44.836Z,3.38
2023-05-23T00:20:35.168Z,4.43
2023-05-23T00:23:24.832Z,4.22
2023-05-23T00:26:12.598Z,3.50
2023-05-23T00:29:00.269Z,4.65
2023-05-23T00:31:48.124Z,3.85
2023-05-23T00:34:36.778Z,4.05
2023-05-23T00:37:24.265Z,3.85
2023-05-23T00:40:12.416Z,4.15
2023-05-23T00:43:00.951Z,4.22
2023-05-23T00:45:49.398Z,4.35
2023-05-23T00:48:38.778Z,3.22
2023-05-23T00:51:26.387Z,3.92
2023-05-23T00:54:16.901Z,4.25
2023-05-23T00:57:04.774Z,3.72
2023-05-23T00:59:53.007Z,4.47
2023-05-23T01:02:48.097Z,4.20
2023-05-23T01:05:36.199Z,4.10
2023-05-23T01:08:24.020Z,3.97
2023-05-23T01:11:42.446Z,3.30
2023-05-23T01:14:51.092Z,3.90
2023-05-23T01:18:04.538Z,4.22
2023-05-23T01:20:59.952Z,4.10
2023-05-23T01:24:13.090Z,4.05
2023-05-23T01:27:30.475Z,4.68
2023-05-23T01:30:21.475Z,4.00
2023-05-23T01:33:11.965Z,4.85
2023-05-23T01:36:05.656Z,3.65
2023-05-23T01:38:53.141Z,4.65
2023-05-23T01:41:41.363Z,3.90
2023-05-23T01:44:29.429Z,4.25
2023-05-23T01:47:18.188Z,3.63
2023-05-23T01:50:07.255Z,5.07
2023-05-23T01:52:57.019Z,4.78
2023-05-23T01:55:45.447Z,4.10
2023-05-23T01:58:33.105Z,4.50
2023-05-23T02:01:21.360Z,3.93
2023-05-23T02:04:09.517Z,4.60
2023-05-23T02:06:57.107Z,4.03
2023-05-23T02:09:44.555Z,4.35
2023-05-23T02:12:32.181Z,4.50
2023-05-23T02:15:19.947Z,5.38
2023-05-23T02:18:07.571Z,5.32
2023-05-23T02:20:58.167Z,4.85
2023-05-23T02:23:45.692Z,3.78
2023-05-23T02:26:33.219Z,4.70
2023-05-23T02:29:21.066Z,4.63
2023-05-23T02:32:08.589Z,5.40
2023-05-23T02:34:57.405Z,4.47
2023-05-23T02:37:45.271Z,4.65
2023-05-23T02:40:32.740Z,3.58
2023-05-23T02:43:20.716Z,4.90
2023-05-23T02:46:08.218Z,4.28
2023-05-23T02:48:56.260Z,4.53
2023-05-23T02:51:43.736Z,4.15
2023-05-23T02:54:31.330Z,4.13
2023-05-23T02:57:18.814Z,5.93
2023-05-23T03:00:07.313Z,3.67
2023-05-23T03:02:55.003Z,5.32
2023-05-23T03:05:43.006Z,5.20
2023-05-23T03:08:31.001Z,4.93
2023-05-23T03:11:18.590Z,3.92
2023-05-23T03:14:06.121Z,5.18
2023-05-23T03:16:53.603Z,4.32
2023-05-23T03:19:41.204Z,4.57
2023-05-23T03:22:28.883Z,5.82
2023-05-23T03:25:17.053Z,4.38
2023-05-23T03:28:04.626Z,5.75
2023-05-23T03:30:52.155Z,4.97
2023-05-23T03:33:40.659Z,5.72
2023-05-23T03:36:28.634Z,4.78
2023-05-23T03:39:16.403Z,4.93
2023-05-23T03:42:04.112Z,4.38
2023-05-23T03:44:51.570Z,3.85
2023-05-23T03:47:39.226Z,4.80
2023-05-23T03:50:27.150Z,5.13
2023-05-23T03:53:14.717Z,4.55
2023-05-23T03:56:02.323Z,4.40
2023-05-23T03:58:49.794Z,3.67
2023-05-23T04:01:37.278Z,4.45
2023-05-23T04:04:26.551Z,3.95
2023-05-23T04:07:15.860Z,4.78
2023-05-23T04:10:04.387Z,4.97
2023-05-23T04:12:52.048Z,4.72
2023-05-23T04:15:40.076Z,5.63
2023-05-23T04:18:28.824Z,6.40
2023-05-23T04:21:16.441Z,5.20
2023-05-23T04:24:04.133Z,6.13
2023-05-23T04:26:51.735Z,4.47
2023-05-23T04:29:40.238Z,6.35
2023-05-23T04:32:27.993Z,5.10
2023-05-23T04:35:15.749Z,4.88
2023-05-23T04:38:04.092Z,4.93
2023-05-23T04:40:54.856Z,6.07
2023-05-23T04:43:43.081Z,6.03
2023-05-23T04:46:30.512Z,6.15
2023-05-23T04:49:18.245Z,6.38
2023-05-23T04:52:06.610Z,11.05
2023-05-23T04:54:54.284Z,16.30
2023-05-23T04:57:42.038Z,15.45
2023-05-23T05:00:30.459Z,11.90
2023-05-23T05:03:18.050Z,10.43
2023-05-23T05:06:06.271Z,10.60
2023-05-23T05:08:54.285Z,11.52
2023-05-23T05:11:41.765Z,13.00
2023-05-23T05:14:29.278Z,15.32
2023-05-23T05:17:17.103Z,14.07
2023-05-23T05:20:08.931Z,14.20
2023-05-23T05:22:59.632Z,15.85
2023-05-23T05:25:48.018Z,14.18
2023-05-23T05:28:35.710Z,11.63
2023-05-23T05:31:23.310Z,8.35
2023-05-23T05:34:11.577Z,8.70
2023-05-23T05:36:59.034Z,7.88
2023-05-23T05:39:46.573Z,7.60
2023-05-23T05:42:34.276Z,7.40
2023-05-23T05:45:21.827Z,7.38
2023-05-23T05:48:09.385Z,7.25
2023-05-23T05:50:56.957Z,8.00
2023-05-23T05:53:44.491Z,8.20
2023-05-23T05:56:32.582Z,8.95
2023-05-23T05:59:20.099Z,10.13
2023-05-23T06:02:08.348Z,11.88
2023-05-23T06:04:55.996Z,9.50
2023-05-23T06:07:44.504Z,8.65
2023-05-23T06:10:32.103Z,7.70
2023-05-23T06:13:19.623Z,6.95
2023-05-23T06:16:07.395Z,7.07
2023-05-23T06:18:55.218Z,6.00
2023-05-23T06:21:42.801Z,6.60
2023-05-23T06:24:30.386Z,5.90
2023-05-23T06:27:17.940Z,5.53
2023-05-23T06:30:06.789Z,6.40
2023-05-23T06:32:54.271Z,5.95
2023-05-23T06:35:41.847Z,6.57
2023-05-23T06:38:33.994Z,5.43
2023-05-23T06:41:21.527Z,5.80
2023-05-23T06:44:09.036Z,6.55
2023-05-23T06:46:59.594Z,7.38
2023-05-23T06:49:47.093Z,8.55
2023-05-23T06:52:34.632Z,9.15
2023-05-23T06:55:23.572Z,8.18
2023-05-23T06:58:11.177Z,8.88
2023-05-23T07:00:59.113Z,8.95
2023-05-23T07:03:46.757Z,9.57
2023-05-23T07:06:36.653Z,6.93
2023-05-23T07:09:24.202Z,8.50
2023-05-23T07:12:11.714Z,10.30
2023-05-23T07:14:59.235Z,13.65
2023-05-23T07:17:47.072Z,13.30
2023-05-23T07:20:36.262Z,13.15
2023-05-23T07:23:24.651Z,12.82
2023-05-23T07:26:12.135Z,11.68
2023-05-23T07:28:59.616Z,9.73
2023-05-23T07:31:47.260Z,10.50
2023-05-23T07:34:37.831Z,9.52
2023-05-23T07:37:27.472Z,10.02
2023-05-23T07:40:15.124Z,9.50
2023-05-23T07:43:02.626Z,9.60
2023-05-23T07:45:50.224Z,10.45
2023-05-23T07:48:37.766Z,10.90
2023-05-23T07:51:25.447Z,9.82
2023-05-23T07:54:15.754Z,9.05
2023-05-23T07:57:05.122Z,7.50
2023-05-23T07:59:54.305Z,6.25
2023-05-23T08:02:42.323Z,5.90
2023-05-23T08:05:30.004Z,7.05
2023-05-23T08:08:17.834Z,8.25
2023-05-23T08:11:05.613Z,8.52
2023-05-23T08:13:53.219Z,8.35
2023-05-23T08:16:40.947Z,8.38
2023-05-23T08:19:29.358Z,8.80
2023-05-23T08:22:17.126Z,7.60
2023-05-23T08:25:06.292Z,7.60
2023-05-23T08:27:55.998Z,7.30
2023-05-23T08:30:43.842Z,7.07
2023-05-23T08:33:31.780Z,6.95
2023-05-23T08:36:19.298Z,6.97
2023-05-23T08:39:06.968Z,7.63
2023-05-23T08:41:54.751Z,6.65
2023-05-23T08:44:42.397Z,7.35
2023-05-23T08:47:35.201Z,8.23
2023-05-23T08:50:23.782Z,8.15
2023-05-23T08:53:20.487Z,6.70
2023-05-23T08:56:11.318Z,6.80
2023-05-23T08:58:59.404Z,7.10
2023-05-23T09:01:48.873Z,7.25
2023-05-23T09:04:36.775Z,6.63
2023-05-23T09:07:24.368Z,7.00
2023-05-23T09:10:13.078Z,7.38
2023-05-23T09:13:01.496Z,8.05
2023-05-23T09:16:08.526Z,8.07
2023-05-23T09:18:56.150Z,9.40
2023-05-23T09:21:45.720Z,9.60
2023-05-23T09:24:38.637Z,8.93
2023-05-23T09:27:26.133Z,10.18
2023-05-23T09:30:14.529Z,10.13
2023-05-23T09:33:05.538Z,9.82
2023-05-23T09:35:54.909Z,10.68
2023-05-23T09:38:46.116Z,9.52
2023-05-23T09:41:37.220Z,9.35
2023-05-23T09:44:25.190Z,8.52
2023-05-23T09:47:12.873Z,8.50
2023-05-23T09:50:00.503Z,8.13
2023-05-23T09:52:48.325Z,8.27
2023-05-23T09:55:35.906Z,7.95
2023-05-23T09:58:27.267Z,6.60
2023-05-23T10:01:16.650Z,7.70
2023-05-23T10:04:05.535Z,7.47
2023-05-23T10:07:04.594Z,5.78
2023-05-23T10:10:03.547Z,5.50
2023-05-23T10:12:56.281Z,7.97
2023-05-23T10:15:44.316Z,6.47
2023-05-23T10:18:43.816Z,7.32
2023-05-23T10:21:40.955Z,8.45
2023-05-23T10:24:29.655Z,7.63
2023-05-23T10:27:17.648Z,7.45
2023-05-23T10:30:09.693Z,8.20
2023-05-23T10:32:59.415Z,8.45
2023-05-23T10:36:37.882Z,8.85
2023-05-23T10:40:05.204Z,6.55
2023-05-23T10:43:29.713Z,6.30
2023-05-23T10:46:21.836Z,6.43
2023-05-23T10:49:11.536Z,7.20
2023-05-23T10:52:01.015Z,7.75
2023-05-23T10:54:56.404Z,7.28
2023-05-23T10:57:45.936Z,8.98
2023-05-23T11:00:33.621Z,7.60
2023-05-23T11:03:52.026Z,8.18
2023-05-23T11:06:45.729Z,8.95
2023-05-23T11:09:33.223Z,8.48
2023-05-23T11:12:44.924Z,8.15
2023-05-23T11:15:45.114Z,7.65
2023-05-23T11:18:39.446Z,7.65
2023-05-23T11:21:30.088Z,7.13
2023-05-23T11:24:20.806Z,7.25
2023-05-23T11:27:13.149Z,7.00
2023-05-23T11:30:09.624Z,7.50
2023-05-23T11:32:57.475Z,7.78
2023-05-23T11:35:48.280Z,7.57
2023-05-23T11:38:36.203Z,6.20
2023-05-23T11:41:23.845Z,7.50
2023-05-23T11:44:14.847Z,6.68
2023-05-23T11:47:07.814Z,7.05
2023-05-23T11:49:55.353Z,6.35
2023-05-23T11:52:43.127Z,6.55
2023-05-23T11:55:31.320Z,6.80
2023-05-23T11:58:23.112Z,6.07
2023-05-23T12:01:12.887Z,6.00
2023-05-23T12:04:01.123Z,6.22
2023-05-23T12:06:50.805Z,5.28
2023-05-23T12:09:46.649Z,6.03
2023-05-23T12:12:34.212Z,5.78
2023-05-23T12:15:29.729Z,5.50
2023-05-23T12:18:17.310Z,5.15
2023-05-23T12:21:08.672Z,4.90
2023-05-23T12:23:57.504Z,5.80
2023-05-23T12:26:59.420Z,5.25
2023-05-23T12:29:54.253Z,5.53
2023-05-23T12:32:44.375Z,6.10
2023-05-23T12:35:32.131Z,5.00
2023-05-23T12:38:19.969Z,6.57
2023-05-23T12:41:17.736Z,5.80
2023-05-23T12:44:05.340Z,4.60
2023-05-23T12:46:52.980Z,4.18
2023-05-23T12:49:40.976Z,4.20
2023-05-23T12:52:28.491Z,3.95
2023-05-23T12:55:16.615Z,4.13
2023-05-23T12:58:04.201Z,4.18
2023-05-23T13:00:51.792Z,3.55
2023-05-23T13:03:39.373Z,3.63
2023-05-23T13:06:28.165Z,4.68
2023-05-23T13:09:16.162Z,3.45
2023-05-23T13:12:04.164Z,3.38
2023-05-23T13:14:52.626Z,3.42
2023-05-23T13:17:40.865Z,3.33
2023-05-23T13:20:30.347Z,2.90
2023-05-23T13:23:18.132Z,3.05
2023-05-23T13:26:06.975Z,3.72
2023-05-23T13:28:54.577Z,4.45
2023-05-23T13:31:42.265Z,3.63
2023-05-23T13:34:30.085Z,3.00
2023-05-23T13:37:17.639Z,3.58
2023-05-23T13:40:06.831Z,3.75
2023-05-23T13:42:54.347Z,2.55
2023-05-23T13:45:42.030Z,3.13
2023-05-23T13:48:29.759Z,4.03
2023-05-23T13:51:17.303Z,5.32
2023-05-23T13:54:06.310Z,4.00
2023-05-23T13:56:53.889Z,5.03
2023-05-23T13:59:41.459Z,5.32
2023-05-23T14:02:32.005Z,6.40
2023-05-23T14:05:19.717Z,4.85
2023-05-23T14:08:07.659Z,5.85
2023-05-23T14:10:55.221Z,5.53
2023-05-23T14:13:42.714Z,4.05
2023-05-23T14:16:30.862Z,5.28
2023-05-23T14:19:19.030Z,5.85
2023-05-23T14:22:06.703Z,5.82
2023-05-23T14:24:54.226Z,5.82
2023-05-23T14:27:41.787Z,6.10
2023-05-23T14:30:29.382Z,5.30
2023-05-23T14:33:17.031Z,5.00
2023-05-23T14:36:05.306Z,4.05
2023-05-23T14:38:52.880Z,4.88
2023-05-23T14:41:40.565Z,5.38
2023-05-23T14:44:28.295Z,5.63
2023-05-23T14:47:15.978Z,4.80
2023-05-23T14:50:04.299Z,5.70
2023-05-23T14:52:51.877Z,4.78
2023-05-23T14:55:39.574Z,5.45
2023-05-23T14:58:27.498Z,5.10
2023-05-23T15:01:15.138Z,4.85
2023-05-23T15:04:02.869Z,5.53
2023-05-23T15:06:51.200Z,6.63
2023-05-23T15:09:38.718Z,5.13
2023-05-23T15:12:26.344Z,4.95
2023-05-23T15:15:13.929Z,5.43
2023-05-23T15:18:06.762Z,5.50
2023-05-23T15:20:54.642Z,5.68
2023-05-23T15:23:42.235Z,6.47
2023-05-23T15:26:30.006Z,5.60
2023-05-23T15:29:18.344Z,4.93
2023-05-23T15:32:09.558Z,5.95
2023-05-23T15:34:57.170Z,4.97
2023-05-23T15:37:45.188Z,5.85
2023-05-23T15:40:32.722Z,5.60
2023-05-23T15:43:20.728Z,6.57
2023-05-23T15:46:08.250Z,6.13
2023-05-23T15:49:07.310Z,6.18
2023-05-23T15:52:01.285Z,6.15
2023-05-23T15:54:48.849Z,6.75
2023-05-23T15:57:36.418Z,7.15
2023-05-23T16:00:23.941Z,7.30
2023-05-23T16:03:11.814Z,8.20
2023-05-23T16:05:59.382Z,6.38
2023-05-23T16:08:46.895Z,6.50
2023-05-23T16:11:34.410Z,7.22
2023-05-23T16:14:22.809Z,6.95
2023-05-23T16:17:10.430Z,6.28
2023-05-23T16:19:57.967Z,7.18
2023-05-23T16:22:46.039Z,5.43
2023-05-23T16:25:33.666Z,6.78
2023-05-23T16:28:21.825Z,6.22
2023-05-23T16:31:11.242Z,5.80
2023-05-23T16:33:59.387Z,7.05
2023-05-23T16:36:46.938Z,5.97
2023-05-23T16:39:34.702Z,6.18
2023-05-23T16:42:22.512Z,6.72
2023-05-23T16:45:10.373Z,6.20
2023-05-23T16:47:58.125Z,5.78
2023-05-23T16:50:45.728Z,5.78
2023-05-23T16:53:33.300Z,7.20
2023-05-23T16:56:21.544Z,5.75
2023-05-23T16:59:09.503Z,6.57
2023-05-23T17:01:57.555Z,5.28
2023-05-23T17:04:45.233Z,5.82
2023-05-23T17:07:32.838Z,4.70
2023-05-23T17:10:20.783Z,5.68
2023-05-23T17:13:08.214Z,4.95
2023-05-23T17:15:56.037Z,6.32
2023-05-23T17:18:43.694Z,6.00
2023-05-23T17:21:31.659Z,5.97
2023-05-23T17:24:19.173Z,5.57
2023-05-23T17:27:06.835Z,5.78
2023-05-23T17:29:54.501Z,6.03
2023-05-23T17:32:43.488Z,6.88
2023-05-23T17:35:31.008Z,5.75
2023-05-23T17:38:19.529Z,6.28
2023-05-23T17:41:07.018Z,7.28
2023-05-23T17:43:54.608Z,6.72
2023-05-23T17:46:42.277Z,5.72
2023-05-23T17:49:29.919Z,6.38
2023-05-23T17:52:17.394Z,6.50
2023-05-23T17:55:05.493Z,6.50
2023-05-23T17:57:53.139Z,5.40
2023-05-23T18:00:41.195Z,6.00
2023-05-23T18:03:29.118Z,5.25
2023-05-23T18:06:16.646Z,6.55
2023-05-23T18:09:04.227Z,6.05
2023-05-23T18:11:51.949Z,5.75
2023-05-23T18:14:40.063Z,6.47
2023-05-23T18:17:27.923Z,7.20
2023-05-23T18:20:15.638Z,7.93
2023-05-23T18:23:03.294Z,6.53
2023-05-23T18:25:50.796Z,6.63
2023-05-23T18:28:38.303Z,7.18
2023-05-23T18:31:25.803Z,6.20
2023-05-23T18:34:14.097Z,7.03
2023-05-23T18:37:03.185Z,5.75
2023-05-23T18:39:50.834Z,5.57
2023-05-23T18:42:38.531Z,6.72
2023-05-23T18:45:26.242Z,6.50
2023-05-23T18:48:14.942Z,5.85
2023-05-23T18:51:02.688Z,5.28
2023-05-23T18:53:50.245Z,5.38
2023-05-23T18:56:37.775Z,5.15
2023-05-23T18:59:25.386Z,5.13
2023-05-23T19:02:13.128Z,5.47
2023-05-23T19:05:01.785Z,4.63
2023-05-23T19:07:49.308Z,4.60
2023-05-23T19:10:37.260Z,4.47
2023-05-23T19:13:26.243Z,4.97
2023-05-23T19:16:13.865Z,3.92
2023-05-23T19:19:01.565Z,4.53
2023-05-23T19:21:49.076Z,4.88
2023-05-23T19:24:38.204Z,4.57
2023-05-23T19:27:25.794Z,4.13
2023-05-23T19:30:13.538Z,4.72
2023-05-23T19:33:01.649Z,4.60
2023-05-23T19:35:49.145Z,5.13
2023-05-23T19:38:36.783Z,4.40
2023-05-23T19:41:24.343Z,4.38
2023-05-23T19:44:12.165Z,4.00
2023-05-23T19:46:59.757Z,3.95
2023-05-23T19:49:47.313Z,4.95
2023-05-23T19:52:34.821Z,4.22
2023-05-23T19:55:22.424Z,5.15
2023-05-23T19:58:10.492Z,5.60
2023-05-23T20:00:58.015Z,5.28
2023-05-23T20:03:45.676Z,4.47
2023-05-23T20:06:34.327Z,4.95
2023-05-23T20:09:22.717Z,5.03
2023-05-23T20:12:10.362Z,5.57
2023-05-23T20:14:57.905Z,4.85
2023-05-23T20:17:45.480Z,5.07
2023-05-23T20:20:33.058Z,5.93
2023-05-23T20:23:20.690Z,4.68
2023-05-23T20:26:09.676Z,5.47
2023-05-23T20:28:57.591Z,4.68
2023-05-23T20:31:45.373Z,4.68
2023-05-23T20:34:33.251Z,5.93
2023-05-23T20:37:21.113Z,4.40
2023-05-23T20:40:09.991Z,4.82
2023-05-23T20:43:00.768Z,4.55
2023-05-23T20:45:48.660Z,4.30
2023-05-23T20:48:36.428Z,5.25
2023-05-23T20:51:24.103Z,6.75
2023-05-23T20:54:13.046Z,4.25
2023-05-23T20:57:02.810Z,3.67
2023-05-23T20:59:50.468Z,4.10
2023-05-23T21:02:42.263Z,5.35
2023-05-23T21:05:29.904Z,4.70
2023-05-23T21:08:17.392Z,5.00
2023-05-23T21:11:05.011Z,4.93
2023-05-23T21:13:52.529Z,6.60
2023-05-23T21:16:40.054Z,5.18
2023-05-23T21:19:27.686Z,5.05
2023-05-23T21:22:15.855Z,5.28
2023-05-23T21:25:04.942Z,5.15
2023-05-23T21:27:52.554Z,5.25
2023-05-23T21:30:40.219Z,4.97
2023-05-23T21:33:27.939Z,5.40
2023-05-23T21:36:15.676Z,5.03
2023-05-23T21:39:03.780Z,5.40
2023-05-23T21:41:51.543Z,5.20
2023-05-23T21:44:40.795Z,5.05
2023-05-23T21:47:28.622Z,4.68
2023-05-23T21:50:16.379Z,4.38
2023-05-23T21:53:03.978Z,4.68
2023-05-23T21:55:51.492Z,6.13
2023-05-23T21:58:38.959Z,4.40
2023-05-23T22:01:26.658Z,5.20
2023-05-23T22:04:14.940Z,4.75
2023-05-23T22:07:02.506Z,5.40
2023-05-23T22:09:51.305Z,5.47
2023-05-23T22:12:38.951Z,4.82
2023-05-23T22:15:26.530Z,6.18
2023-05-23T22:18:14.043Z,5.38
2023-05-23T22:21:05.444Z,4.20
2023-05-23T22:23:53.899Z,5.40
2023-05-23T22:26:41.604Z,4.57
2023-05-23T22:29:29.111Z,6.72
2023-05-23T22:32:16.651Z,4.90
2023-05-23T22:35:04.398Z,4.55
2023-05-23T22:37:51.936Z,4.35
2023-05-23T22:40:40.018Z,4.50
2023-05-23T22:43:29.180Z,4.38
2023-05-23T22:46:16.998Z,3.55
2023-05-23T22:49:04.502Z,4.38
2023-05-23T22:51:52.070Z,4.38
2023-05-23T22:54:39.622Z,3.88
2023-05-23T22:57:27.172Z,4.38
2023-05-23T23:00:15.120Z,4.70
2023-05-23T23:03:03.959Z,4.32
2023-05-23T23:05:51.806Z,5.03
2023-05-23T23:08:39.263Z,4.40
2023-05-23T23:11:26.843Z,3.80
2023-05-23T23:14:14.503Z,4.10
2023-05-23T23:17:02.073Z,4.00
2023-05-23T23:19:51.591Z,3.70
2023-05-23T23:22:39.753Z,3.33
2023-05-23T23:25:27.407Z,3.97
2023-05-23T23:28:14.943Z,3.90
2023-05-23T23:31:02.600Z,3.53
2023-05-23T23:33:50.061Z,4.03
2023-05-23T23:36:39.952Z,3.90
2023-05-23T23:39:27.490Z,4.32
2023-05-23T23:42:15.179Z,4.35
2023-05-23T23:45:03.858Z,3.85
2023-05-23T23:47:51.420Z,4.07
2023-05-23T23:50:38.973Z,3.22
2023-05-23T23:53:26.509Z,4.43
2023-05-23T23:56:14.347Z,3.85
2023-05-23T23:59:01.891Z,3.72
